sensor_id;sensor_type;location;lat;lon;timestamp;pressure;altitude;pressure_sealevel;temperature;humidity
34674;BME280;20879;55.668;37.858;2022-12-10T00:00:53;99702.44;;;-3.24;98.68
34674;BME280;20879;55.668;37.858;2022-12-10T00:03:29;99701.84;;;-3.19;98.79
34674;BME280;20879;55.668;37.858;2022-12-10T00:06:06;99700.91;;;-3.21;98.59
34674;BME280;20879;55.668;37.858;2022-12-10T00:08:35;99711.28;;;-3.14;99.22
34674;BME280;20879;55.668;37.858;2022-12-10T00:11:06;99714.44;;;-3.20;98.92
34674;BME280;20879;55.668;37.858;2022-12-10T00:13:37;99716.28;;;-3.37;99.51
34674;BME280;20879;55.668;37.858;2022-12-10T00:16:11;99735.38;;;-3.45;99.66
34674;BME280;20879;55.668;37.858;2022-12-10T00:18:48;99725.44;;;-3.41;99.76
34674;BME280;20879;55.668;37.858;2022-12-10T00:21:26;99726.34;;;-3.39;100.00
34674;BME280;20879;55.668;37.858;2022-12-10T00:23:56;99743.94;;;-3.42;100.00
34674;BME280;20879;55.668;37.858;2022-12-10T00:26:28;99742.50;;;-3.37;99.82
34674;BME280;20879;55.668;37.858;2022-12-10T00:28:59;99738.88;;;-3.21;100.00
34674;BME280;20879;55.668;37.858;2022-12-10T00:31:30;99739.38;;;-3.08;100.00
34674;BME280;20879;55.668;37.858;2022-12-10T00:34:04;99738.03;;;-3.00;100.00
34674;BME280;20879;55.668;37.858;2022-12-10T00:36:42;99721.72;;;-3.07;99.62
34674;BME280;20879;55.668;37.858;2022-12-10T00:39:19;99729.25;;;-3.08;99.48
34674;BME280;20879;55.668;37.858;2022-12-10T00:41:49;99713.81;;;-3.14;99.63
34674;BME280;20879;55.668;37.858;2022-12-10T00:44:19;99711.28;;;-3.36;100.00
34674;BME280;20879;55.668;37.858;2022-12-10T00:46:48;99699.78;;;-3.48;100.00
34674;BME280;20879;55.668;37.858;2022-12-10T00:49:20;99692.88;;;-3.53;100.00
34674;BME280;20879;55.668;37.858;2022-12-10T00:51:51;99689.53;;;-3.52;100.00
34674;BME280;20879;55.668;37.858;2022-12-10T00:54:30;99697.31;;;-3.68;100.00
34674;BME280;20879;55.668;37.858;2022-12-10T00:56:59;99695.91;;;-3.61;100.00
34674;BME280;20879;55.668;37.858;2022-12-10T00:59:39;99693.19;;;-3.66;100.00
34674;BME280;20879;55.668;37.858;2022-12-10T01:02:08;99686.81;;;-3.77;100.00
34674;BME280;20879;55.668;37.858;2022-12-10T01:04:39;99683.75;;;-3.70;100.00
34674;BME280;20879;55.668;37.858;2022-12-10T01:07:09;99682.06;;;-3.70;100.00
34674;BME280;20879;55.668;37.858;2022-12-10T01:09:38;99672.66;;;-3.72;100.00
34674;BME280;20879;55.668;37.858;2022-12-10T01:12:13;99675.53;;;-3.64;100.00
34674;BME280;20879;55.668;37.858;2022-12-10T01:14:42;99655.00;;;-3.71;100.00
34674;BME280;20879;55.668;37.858;2022-12-10T01:17:11;99668.44;;;-3.73;100.00
34674;BME280;20879;55.668;37.858;2022-12-10T01:19:43;99669.34;;;-3.71;100.00
34674;BME280;20879;55.668;37.858;2022-12-10T01:22:12;99659.47;;;-3.65;100.00
34674;BME280;20879;55.668;37.858;2022-12-10T01:24:41;99642.44;;;-3.69;100.00
34674;BME280;20879;55.668;37.858;2022-12-10T01:27:12;99656.75;;;-3.70;100.00
34674;BME280;20879;55.668;37.858;2022-12-10T01:29:48;99650.72;;;-3.73;100.00
34674;BME280;20879;55.668;37.858;2022-12-10T01:32:17;99650.38;;;-3.81;100.00
34674;BME280;20879;55.668;37.858;2022-12-10T01:34:48;99659.03;;;-3.76;100.00
34674;BME280;20879;55.668;37.858;2022-12-10T01:37:17;99651.56;;;-3.73;100.00
34674;BME280;20879;55.668;37.858;2022-12-10T01:39:47;99666.25;;;-3.64;100.00
34674;BME280;20879;55.668;37.858;2022-12-10T01:42:22;99658.38;;;-3.51;100.00
34674;BME280;20879;55.668;37.858;2022-12-10T01:45:01;99656.63;;;-3.52;100.00
34674;BME280;20879;55.668;37.858;2022-12-10T01:47:31;99651.09;;;-3.64;100.00
34674;BME280;20879;55.668;37.858;2022-12-10T01:50:08;99647.47;;;-3.69;100.00
34674;BME280;20879;55.668;37.858;2022-12-10T01:52:39;99639.41;;;-3.81;100.00
34674;BME280;20879;55.668;37.858;2022-12-10T01:55:40;99660.84;;;-3.73;100.00
34674;BME280;20879;55.668;37.858;2022-12-10T01:58:23;99656.75;;;-3.70;100.00
34674;BME280;20879;55.668;37.858;2022-12-10T02:01:04;99660.00;;;-3.72;100.00
34674;BME280;20879;55.668;37.858;2022-12-10T02:03:40;99660.97;;;-3.70;100.00
34674;BME280;20879;55.668;37.858;2022-12-10T02:06:28;99660.00;;;-3.72;100.00
34674;BME280;20879;55.668;37.858;2022-12-10T02:09:06;99652.47;;;-3.71;100.00
34674;BME280;20879;55.668;37.858;2022-12-10T02:11:49;99668.00;;;-3.63;100.00
34674;BME280;20879;55.668;37.858;2022-12-10T02:14:25;99668.81;;;-3.64;100.00
34674;BME280;20879;55.668;37.858;2022-12-10T02:17:01;99668.38;;;-3.54;100.00
34674;BME280;20879;55.668;37.858;2022-12-10T02:19:44;99667.50;;;-3.54;100.00
34674;BME280;20879;55.668;37.858;2022-12-10T02:22:31;99665.03;;;-3.53;100.00
34674;BME280;20879;55.668;37.858;2022-12-10T02:25:04;99657.41;;;-3.54;100.00
34674;BME280;20879;55.668;37.858;2022-12-10T02:27:42;99651.44;;;-3.76;100.00
34674;BME280;20879;55.668;37.858;2022-12-10T02:30:16;99653.78;;;-3.80;100.00
34674;BME280;20879;55.668;37.858;2022-12-10T02:32:46;99651.25;;;-3.80;100.00
34674;BME280;20879;55.668;37.858;2022-12-10T02:35:21;99652.97;;;-3.79;100.00
34674;BME280;20879;55.668;37.858;2022-12-10T02:37:56;99639.41;;;-3.81;100.00
34674;BME280;20879;55.668;37.858;2022-12-10T02:40:31;99648.97;;;-3.74;100.00
34674;BME280;20879;55.668;37.858;2022-12-10T02:43:19;99660.28;;;-3.66;100.00
34674;BME280;20879;55.668;37.858;2022-12-10T02:45:53;99661.09;;;-3.67;100.00
34674;BME280;20879;55.668;37.858;2022-12-10T02:48:24;99656.63;;;-3.52;100.00
34674;BME280;20879;55.668;37.858;2022-12-10T02:50:53;99653.53;;;-3.44;100.00
34674;BME280;20879;55.668;37.858;2022-12-10T02:53:28;99605.06;;;-3.76;100.00
34674;BME280;20879;55.668;37.858;2022-12-10T02:56:16;99649.97;;;-3.49;100.00
34674;BME280;20879;55.668;37.858;2022-12-10T02:58:59;99653.94;;;-3.35;100.00
34674;BME280;20879;55.668;37.858;2022-12-10T03:01:44;99643.47;;;-3.22;100.00
34674;BME280;20879;55.668;37.858;2022-12-10T03:04:19;99639.47;;;-3.38;100.00
34674;BME280;20879;55.668;37.858;2022-12-10T03:06:52;99635.75;;;-3.46;100.00
34674;BME280;20879;55.668;37.858;2022-12-10T03:09:33;99629.84;;;-3.46;100.00
34674;BME280;20879;55.668;37.858;2022-12-10T03:12:10;99621.47;;;-3.45;100.00
34674;BME280;20879;55.668;37.858;2022-12-10T03:14:43;99632.88;;;-3.55;100.00
34674;BME280;20879;55.668;37.858;2022-12-10T03:17:15;99634.41;;;-3.59;100.00
34674;BME280;20879;55.668;37.858;2022-12-10T03:19:48;99625.78;;;-3.64;100.00
34674;BME280;20879;55.668;37.858;2022-12-10T03:22:20;99641.75;;;-3.65;100.00
34674;BME280;20879;55.668;37.858;2022-12-10T03:24:50;99630.16;;;-3.60;100.00
34674;BME280;20879;55.668;37.858;2022-12-10T03:27:21;99637.25;;;-3.51;100.00
34674;BME280;20879;55.668;37.858;2022-12-10T03:29:53;99640.75;;;-3.47;100.00
34674;BME280;20879;55.668;37.858;2022-12-10T03:32:32;99630.88;;;-3.41;100.00
34674;BME280;20879;55.668;37.858;2022-12-10T03:35:02;99589.59;;;-3.61;100.00
34674;BME280;20879;55.668;37.858;2022-12-10T03:37:44;99635.50;;;-3.31;100.00
34674;BME280;20879;55.668;37.858;2022-12-10T03:40:17;99618.03;;;-3.46;100.00
34674;BME280;20879;55.668;37.858;2022-12-10T03:42:47;99637.84;;;-3.36;100.00
34674;BME280;20879;55.668;37.858;2022-12-10T03:45:16;99643.91;;;-3.32;100.00
34674;BME280;20879;55.668;37.858;2022-12-10T03:47:52;99658.66;;;-3.22;100.00
34674;BME280;20879;55.668;37.858;2022-12-10T03:50:22;99606.38;;;-3.42;100.00
34674;BME280;20879;55.668;37.858;2022-12-10T03:52:51;99652.16;;;-3.15;100.00
34674;BME280;20879;55.668;37.858;2022-12-10T03:55:20;99640.44;;;-3.13;100.00
34674;BME280;20879;55.668;37.858;2022-12-10T03:57:49;99626.81;;;-3.15;100.00
34674;BME280;20879;55.668;37.858;2022-12-10T04:00:19;99657.19;;;-2.94;100.00
34674;BME280;20879;55.668;37.858;2022-12-10T04:02:48;99649.06;;;-2.85;100.00
34674;BME280;20879;55.668;37.858;2022-12-10T04:05:19;99646.88;;;-2.76;100.00
34674;BME280;20879;55.668;37.858;2022-12-10T04:07:53;99639.06;;;-2.82;100.00
34674;BME280;20879;55.668;37.858;2022-12-10T04:10:24;99640.97;;;-2.76;100.00
34674;BME280;20879;55.668;37.858;2022-12-10T04:12:53;99635.63;;;-2.83;100.00
34674;BME280;20879;55.668;37.858;2022-12-10T04:15:40;99633.34;;;-2.99;99.75
34674;BME280;20879;55.668;37.858;2022-12-10T04:18:22;99633.50;;;-2.94;100.00
34674;BME280;20879;55.668;37.858;2022-12-10T04:20:53;99633.91;;;-3.06;100.00
34674;BME280;20879;55.668;37.858;2022-12-10T04:23:41;99623.16;;;-3.23;100.00
34674;BME280;20879;55.668;37.858;2022-12-10T04:26:23;99616.84;;;-3.33;100.00
34674;BME280;20879;55.668;37.858;2022-12-10T04:29:06;99621.97;;;-3.31;100.00
34674;BME280;20879;55.668;37.858;2022-12-10T04:31:41;99629.88;;;-3.24;100.00
34674;BME280;20879;55.668;37.858;2022-12-10T04:34:10;99638.47;;;-3.20;100.00
34674;BME280;20879;55.668;37.858;2022-12-10T04:36:41;99647.59;;;-3.24;100.00
34674;BME280;20879;55.668;37.858;2022-12-10T04:39:11;99646.13;;;-3.19;100.00
34674;BME280;20879;55.668;37.858;2022-12-10T04:41:47;99638.56;;;-3.17;100.00
34674;BME280;20879;55.668;37.858;2022-12-10T04:44:21;99629.88;;;-3.24;100.00
34674;BME280;20879;55.668;37.858;2022-12-10T04:46:50;99646.78;;;-3.23;100.00
34674;BME280;20879;55.668;37.858;2022-12-10T04:49:20;99636.38;;;-3.30;100.00
34674;BME280;20879;55.668;37.858;2022-12-10T04:51:56;99640.19;;;-3.19;100.00
34674;BME280;20879;55.668;37.858;2022-12-10T04:54:31;99642.78;;;-3.18;100.00
34674;BME280;20879;55.668;37.858;2022-12-10T04:57:05;99632.84;;;-3.34;100.00
34674;BME280;20879;55.668;37.858;2022-12-10T04:59:41;99637.38;;;-3.48;100.00
34674;BME280;20879;55.668;37.858;2022-12-10T05:02:10;99629.00;;;-3.47;100.00
34674;BME280;20879;55.668;37.858;2022-12-10T05:04:39;99628.22;;;-3.44;100.00
34674;BME280;20879;55.668;37.858;2022-12-10T05:07:11;99627.44;;;-3.43;100.00
34674;BME280;20879;55.668;37.858;2022-12-10T05:09:40;99634.63;;;-3.31;100.00
34674;BME280;20879;55.668;37.858;2022-12-10T05:12:14;99628.59;;;-3.35;100.00
34674;BME280;20879;55.668;37.858;2022-12-10T05:14:43;99613.47;;;-3.55;100.00
34674;BME280;20879;55.668;37.858;2022-12-10T05:17:12;99626.53;;;-3.45;100.00
34674;BME280;20879;55.668;37.858;2022-12-10T05:19:41;99570.97;;;-3.84;100.00
34674;BME280;20879;55.668;37.858;2022-12-10T05:22:18;99623.66;;;-3.53;100.00
34674;BME280;20879;55.668;37.858;2022-12-10T05:25:00;99609.19;;;-3.57;100.00
34674;BME280;20879;55.668;37.858;2022-12-10T05:27:31;99626.31;;;-3.50;100.00
34674;BME280;20879;55.668;37.858;2022-12-10T05:30:07;99631.25;;;-3.53;100.00
34674;BME280;20879;55.668;37.858;2022-12-10T05:32:37;99633.78;;;-3.53;100.00
34674;BME280;20879;55.668;37.858;2022-12-10T05:35:07;99640.47;;;-3.55;100.00
34674;BME280;20879;55.668;37.858;2022-12-10T05:37:38;99642.25;;;-3.53;100.00
34674;BME280;20879;55.668;37.858;2022-12-10T05:40:09;99639.84;;;-3.49;100.00
34674;BME280;20879;55.668;37.858;2022-12-10T05:42:39;99650.22;;;-3.43;100.00
34674;BME280;20879;55.668;37.858;2022-12-10T05:45:09;99657.00;;;-3.42;100.00
34674;BME280;20879;55.668;37.858;2022-12-10T05:47:43;99603.06;;;-3.62;100.00
34674;BME280;20879;55.668;37.858;2022-12-10T05:50:23;99650.84;;;-3.28;100.00
34674;BME280;20879;55.668;37.858;2022-12-10T05:52:55;99631.06;;;-3.37;100.00
34674;BME280;20879;55.668;37.858;2022-12-10T05:55:24;99654.03;;;-3.32;100.00
34674;BME280;20879;55.668;37.858;2022-12-10T05:57:55;99624.66;;;-3.49;100.00
34674;BME280;20879;55.668;37.858;2022-12-10T06:00:25;99654.50;;;-3.20;100.00
34674;BME280;20879;55.668;37.858;2022-12-10T06:02:54;99647.09;;;-3.15;100.00
34674;BME280;20879;55.668;37.858;2022-12-10T06:05:23;99641.28;;;-3.12;100.00
34674;BME280;20879;55.668;37.858;2022-12-10T06:07:52;99641.22;;;-3.14;100.00
34674;BME280;20879;55.668;37.858;2022-12-10T06:10:23;99598.66;;;-3.45;100.00
34674;BME280;20879;55.668;37.858;2022-12-10T06:12:52;99630.81;;;-3.22;100.00
34674;BME280;20879;55.668;37.858;2022-12-10T06:15:22;99637.84;;;-3.14;100.00
34674;BME280;20879;55.668;37.858;2022-12-10T06:17:56;99624.06;;;-3.21;100.00
34674;BME280;20879;55.668;37.858;2022-12-10T06:20:26;99622.91;;;-3.29;100.00
34674;BME280;20879;55.668;37.858;2022-12-10T06:23:00;99631.03;;;-3.16;100.00
34674;BME280;20879;55.668;37.858;2022-12-10T06:25:32;99624.91;;;-3.21;100.00
34674;BME280;20879;55.668;37.858;2022-12-10T06:28:02;99618.94;;;-3.23;100.00
34674;BME280;20879;55.668;37.858;2022-12-10T06:30:31;99622.03;;;-3.30;100.00
34674;BME280;20879;55.668;37.858;2022-12-10T06:33:00;99610.38;;;-3.26;100.00
34674;BME280;20879;55.668;37.858;2022-12-10T06:35:29;99605.25;;;-3.28;100.00
34674;BME280;20879;55.668;37.858;2022-12-10T06:37:59;99604.81;;;-3.39;100.00
34674;BME280;20879;55.668;37.858;2022-12-10T06:40:28;99609.25;;;-3.33;100.00
34674;BME280;20879;55.668;37.858;2022-12-10T06:42:59;99589.91;;;-3.31;100.00
34674;BME280;20879;55.668;37.858;2022-12-10T06:45:29;99594.72;;;-3.16;100.00
34674;BME280;20879;55.668;37.858;2022-12-10T06:47:58;99588.66;;;-3.20;100.00
34674;BME280;20879;55.668;37.858;2022-12-10T06:50:34;99581.19;;;-3.17;100.00
34674;BME280;20879;55.668;37.858;2022-12-10T06:53:04;99594.53;;;-3.21;100.00
34674;BME280;20879;55.668;37.858;2022-12-10T06:55:33;99596.38;;;-3.17;100.00
34674;BME280;20879;55.668;37.858;2022-12-10T06:58:06;99604.66;;;-3.21;100.00
34674;BME280;20879;55.668;37.858;2022-12-10T07:00:41;99599.03;;;-3.13;100.00
34674;BME280;20879;55.668;37.858;2022-12-10T07:03:10;99609.84;;;-2.95;100.00
34674;BME280;20879;55.668;37.858;2022-12-10T07:05:39;99616.75;;;-2.91;100.00
34674;BME280;20879;55.668;37.858;2022-12-10T07:08:13;99620.25;;;-2.87;100.00
34674;BME280;20879;55.668;37.858;2022-12-10T07:10:44;99573.94;;;-3.07;100.00
34674;BME280;20879;55.668;37.858;2022-12-10T07:13:15;99621.63;;;-2.73;100.00
34674;BME280;20879;55.668;37.858;2022-12-10T07:15:45;99622.53;;;-2.72;100.00
34674;BME280;20879;55.668;37.858;2022-12-10T07:18:14;99603.63;;;-2.81;100.00
34674;BME280;20879;55.668;37.858;2022-12-10T07:20:43;99611.56;;;-2.71;100.00
34674;BME280;20879;55.668;37.858;2022-12-10T07:23:12;99610.88;;;-2.67;100.00
34674;BME280;20879;55.668;37.858;2022-12-10T07:25:42;99611.41;;;-2.76;100.00
34674;BME280;20879;55.668;37.858;2022-12-10T07:28:11;99599.13;;;-2.88;100.00
34674;BME280;20879;55.668;37.858;2022-12-10T07:30:42;99607.38;;;-2.93;100.00
34674;BME280;20879;55.668;37.858;2022-12-10T07:33:11;99606.41;;;-2.97;100.00
34674;BME280;20879;55.668;37.858;2022-12-10T07:35:41;99607.47;;;-2.90;100.00
34674;BME280;20879;55.668;37.858;2022-12-10T07:38:15;99571.56;;;-3.03;100.00
34674;BME280;20879;55.668;37.858;2022-12-10T07:40:44;99604.59;;;-2.77;100.00
34674;BME280;20879;55.668;37.858;2022-12-10T07:43:13;99599.81;;;-2.69;100.00
34674;BME280;20879;55.668;37.858;2022-12-10T07:45:44;99606.78;;;-2.64;100.00
34674;BME280;20879;55.668;37.858;2022-12-10T07:48:14;99575.84;;;-2.77;100.00
34674;BME280;20879;55.668;37.858;2022-12-10T07:50:43;99594.13;;;-2.64;100.00
34674;BME280;20879;55.668;37.858;2022-12-10T07:53:12;99599.25;;;-2.62;100.00
34674;BME280;20879;55.668;37.858;2022-12-10T07:55:41;99592.75;;;-2.54;100.00
34674;BME280;20879;55.668;37.858;2022-12-10T07:58:10;99587.31;;;-2.65;100.00
34674;BME280;20879;55.668;37.858;2022-12-10T08:00:40;99593.28;;;-2.63;100.00
34674;BME280;20879;55.668;37.858;2022-12-10T08:03:11;99595.19;;;-2.57;100.00
34674;BME280;20879;55.668;37.858;2022-12-10T08:06:00;99585.13;;;-2.54;100.00
34674;BME280;20879;55.668;37.858;2022-12-10T08:08:30;99585.63;;;-2.64;100.00
34674;BME280;20879;55.668;37.858;2022-12-10T08:10:59;99589.41;;;-2.53;100.00
34674;BME280;20879;55.668;37.858;2022-12-10T08:13:29;99587.19;;;-2.43;100.00
34674;BME280;20879;55.668;37.858;2022-12-10T08:16:01;99599.06;;;-2.42;100.00
34674;BME280;20879;55.668;37.858;2022-12-10T08:18:38;99585.19;;;-2.28;100.00
34674;BME280;20879;55.668;37.858;2022-12-10T08:21:09;99594.78;;;-2.19;100.00
34674;BME280;20879;55.668;37.858;2022-12-10T08:23:38;99580.38;;;-2.20;100.00
34674;BME280;20879;55.668;37.858;2022-12-10T08:26:10;99589.81;;;-2.16;100.00
34674;BME280;20879;55.668;37.858;2022-12-10T08:28:40;99550.44;;;-2.55;100.00
34674;BME280;20879;55.668;37.858;2022-12-10T08:31:10;99591.97;;;-2.27;100.00
34674;BME280;20879;55.668;37.858;2022-12-10T08:33:42;99582.75;;;-2.25;100.00
34674;BME280;20879;55.668;37.858;2022-12-10T08:36:13;99588.34;;;-2.09;100.00
34674;BME280;20879;55.668;37.858;2022-12-10T08:38:43;99591.09;;;-2.03;100.00
34674;BME280;20879;55.668;37.858;2022-12-10T08:41:13;99585.75;;;-2.11;100.00
34674;BME280;20879;55.668;37.858;2022-12-10T08:43:43;99588.72;;;-2.23;100.00
34674;BME280;20879;55.668;37.858;2022-12-10T08:46:13;99561.13;;;-2.39;100.00
34674;BME280;20879;55.668;37.858;2022-12-10T08:48:50;99592.09;;;-2.24;100.00
34674;BME280;20879;55.668;37.858;2022-12-10T08:51:20;99591.44;;;-2.18;100.00
34674;BME280;20879;55.668;37.858;2022-12-10T08:53:49;99591.72;;;-2.11;100.00
34674;BME280;20879;55.668;37.858;2022-12-10T08:56:18;99585.69;;;-2.13;100.00
34674;BME280;20879;55.668;37.858;2022-12-10T08:58:47;99551.03;;;-2.38;100.00
34674;BME280;20879;55.668;37.858;2022-12-10T09:01:17;99568.03;;;-2.09;100.00
34674;BME280;20879;55.668;37.858;2022-12-10T09:03:47;99569.81;;;-2.07;100.00
34674;BME280;20879;55.668;37.858;2022-12-10T09:06:23;99570.28;;;-2.19;100.00
34674;BME280;20879;55.668;37.858;2022-12-10T09:08:53;99572.72;;;-2.22;100.00
34674;BME280;20879;55.668;37.858;2022-12-10T09:11:24;99584.38;;;-2.27;100.00
34674;BME280;20879;55.668;37.858;2022-12-10T09:13:53;99580.28;;;-2.23;100.00
34674;BME280;20879;55.668;37.858;2022-12-10T09:16:28;99586.53;;;-2.14;100.00
34674;BME280;20879;55.668;37.858;2022-12-10T09:18:58;99585.69;;;-2.13;100.00
34674;BME280;20879;55.668;37.858;2022-12-10T09:21:29;99579.41;;;-2.24;100.00
34674;BME280;20879;55.668;37.858;2022-12-10T09:23:59;99582.13;;;-2.19;100.00
34674;BME280;20879;55.668;37.858;2022-12-10T09:26:28;99578.00;;;-2.16;100.00
34674;BME280;20879;55.668;37.858;2022-12-10T09:29:02;99575.94;;;-2.26;100.00
34674;BME280;20879;55.668;37.858;2022-12-10T09:31:32;99582.75;;;-2.25;100.00
34674;BME280;20879;55.668;37.858;2022-12-10T09:34:01;99583.81;;;-2.18;100.00
34674;BME280;20879;55.668;37.858;2022-12-10T09:36:32;99577.09;;;-2.18;100.00
34674;BME280;20879;55.668;37.858;2022-12-10T09:39:02;99577.94;;;-2.17;100.00
34674;BME280;20879;55.668;37.858;2022-12-10T09:41:47;99555.63;;;-2.28;100.00
34674;BME280;20879;55.668;37.858;2022-12-10T09:44:29;99569.94;;;-2.30;100.00
34674;BME280;20879;55.668;37.858;2022-12-10T09:47:02;99575.91;;;-2.28;100.00
34674;BME280;20879;55.668;37.858;2022-12-10T09:49:39;99582.00;;;-2.22;100.00
34674;BME280;20879;55.668;37.858;2022-12-10T09:52:15;99581.31;;;-2.17;100.00
34674;BME280;20879;55.668;37.858;2022-12-10T09:54:47;99568.88;;;-2.11;100.00
34674;BME280;20879;55.668;37.858;2022-12-10T09:57:21;99579.16;;;-2.06;100.00
34674;BME280;20879;55.668;37.858;2022-12-10T10:00:01;99571.66;;;-2.03;100.00
34674;BME280;20879;55.668;37.858;2022-12-10T10:02:38;99567.88;;;-2.14;100.00
34674;BME280;20879;55.668;37.858;2022-12-10T10:05:12;99560.97;;;-2.18;100.00
34674;BME280;20879;55.668;37.858;2022-12-10T10:07:52;99559.53;;;-2.12;100.00
34674;BME280;20879;55.668;37.858;2022-12-10T10:10:27;99563.69;;;-2.14;100.00
34674;BME280;20879;55.668;37.858;2022-12-10T10:13:14;99561.13;;;-2.15;100.00
34674;BME280;20879;55.668;37.858;2022-12-10T10:15:45;99556.03;;;-2.15;100.00
34674;BME280;20879;55.668;37.858;2022-12-10T10:18:21;99557.00;;;-2.12;100.00
34674;BME280;20879;55.668;37.858;2022-12-10T10:20:56;99547.31;;;-2.23;100.00
34674;BME280;20879;55.668;37.858;2022-12-10T10:23:28;99556.78;;;-2.18;100.00
34674;BME280;20879;55.668;37.858;2022-12-10T10:25:57;99544.75;;;-2.23;100.00
34674;BME280;20879;55.668;37.858;2022-12-10T10:28:27;99540.03;;;-2.38;100.00
34674;BME280;20879;55.668;37.858;2022-12-10T10:30:56;99539.94;;;-2.41;100.00
34674;BME280;20879;55.668;37.858;2022-12-10T10:33:26;99536.72;;;-2.36;100.00
34674;BME280;20879;55.668;37.858;2022-12-10T10:35:57;99539.22;;;-2.37;100.00
34674;BME280;20879;55.668;37.858;2022-12-10T10:38:29;99535.06;;;-2.35;100.00
34674;BME280;20879;55.668;37.858;2022-12-10T10:41:00;99516.25;;;-2.42;100.00
34674;BME280;20879;55.668;37.858;2022-12-10T10:43:34;99526.03;;;-2.27;100.00
34674;BME280;20879;55.668;37.858;2022-12-10T10:46:11;99513.00;;;-2.38;100.00
34674;BME280;20879;55.668;37.858;2022-12-10T10:48:41;99529.25;;;-2.33;100.00
34674;BME280;20879;55.668;37.858;2022-12-10T10:51:18;99530.06;;;-2.34;100.00
34674;BME280;20879;55.668;37.858;2022-12-10T10:53:53;99517.53;;;-2.29;100.00
34674;BME280;20879;55.668;37.858;2022-12-10T10:56:23;99523.38;;;-2.30;100.00
34674;BME280;20879;55.668;37.858;2022-12-10T10:59:02;99515.50;;;-2.39;100.00
34674;BME280;20879;55.668;37.858;2022-12-10T11:01:45;99520.72;;;-2.35;100.00
34674;BME280;20879;55.668;37.858;2022-12-10T11:04:15;99518.06;;;-2.38;100.00
34674;BME280;20879;55.668;37.858;2022-12-10T11:06:52;99514.69;;;-2.38;100.00
34674;BME280;20879;55.668;37.858;2022-12-10T11:09:28;99502.59;;;-2.46;100.00
34674;BME280;20879;55.668;37.858;2022-12-10T11:12:05;99484.06;;;-2.44;100.00
34674;BME280;20879;55.668;37.858;2022-12-10T11:14:39;99498.88;;;-2.31;100.00
34674;BME280;20879;55.668;37.858;2022-12-10T11:17:18;99497.84;;;-2.36;100.00
34674;BME280;20879;55.668;37.858;2022-12-10T11:19:55;99492.97;;;-2.30;100.00
34674;BME280;20879;55.668;37.858;2022-12-10T11:22:28;99488.97;;;-2.23;100.00
34674;BME280;20879;55.668;37.858;2022-12-10T11:25:00;99459.59;;;-2.42;100.00
34674;BME280;20879;55.668;37.858;2022-12-10T11:27:33;99494.47;;;-2.09;100.00
34674;BME280;20879;55.668;37.858;2022-12-10T11:30:09;99486.72;;;-2.14;100.00
34674;BME280;20879;55.668;37.858;2022-12-10T11:33:03;99484.84;;;-2.20;100.00
34674;BME280;20879;55.668;37.858;2022-12-10T11:35:47;99479.97;;;-2.14;100.00
34674;BME280;20879;55.668;37.858;2022-12-10T11:38:27;99481.78;;;-2.09;100.00
34674;BME280;20879;55.668;37.858;2022-12-10T11:41:07;99471.50;;;-2.14;100.00
34674;BME280;20879;55.668;37.858;2022-12-10T11:44:01;99463.75;;;-2.19;100.00
34674;BME280;20879;55.668;37.858;2022-12-10T11:49:51;99462.31;;;-2.11;100.00
34674;BME280;20879;55.668;37.858;2022-12-10T11:52:40;99461.88;;;-1.97;100.00
34674;BME280;20879;55.668;37.858;2022-12-10T11:55:22;99460.78;;;-2.05;100.00
34674;BME280;20879;55.668;37.858;2022-12-10T11:58:05;99452.75;;;-2.19;100.00
34674;BME280;20879;55.668;37.858;2022-12-10T12:00:44;99452.88;;;-2.15;100.00
34674;BME280;20879;55.668;37.858;2022-12-10T12:03:44;99449.78;;;-2.32;100.00
34674;BME280;20879;55.668;37.858;2022-12-10T12:06:34;99436.69;;;-2.46;100.00
34674;BME280;20879;55.668;37.858;2022-12-10T12:09:20;99441.72;;;-2.20;100.00
34674;BME280;20879;55.668;37.858;2022-12-10T12:12:05;99445.84;;;-2.23;100.00
34674;BME280;20879;55.668;37.858;2022-12-10T12:14:50;99440.50;;;-2.33;100.00
34674;BME280;20879;55.668;37.858;2022-12-10T12:17:28;99437.91;;;-2.34;100.00
34674;BME280;20879;55.668;37.858;2022-12-10T12:20:03;99442.97;;;-2.34;100.00
34674;BME280;20879;55.668;37.858;2022-12-10T12:22:36;99440.63;;;-2.28;100.00
34674;BME280;20879;55.668;37.858;2022-12-10T12:25:15;99441.97;;;-2.12;100.00
34674;BME280;20879;55.668;37.858;2022-12-10T12:27:48;99442.91;;;-2.08;100.00
34674;BME280;20879;55.668;37.858;2022-12-10T12:30:27;99428.63;;;-2.06;100.00
34674;BME280;20879;55.668;37.858;2022-12-10T12:33:05;99437.22;;;-2.01;100.00
34674;BME280;20879;55.668;37.858;2022-12-10T12:35:46;99440.28;;;-2.12;100.00
34674;BME280;20879;55.668;37.858;2022-12-10T12:38:27;99439.53;;;-2.09;100.00
34674;BME280;20879;55.668;37.858;2022-12-10T12:41:03;99436.38;;;-2.02;100.00
34674;BME280;20879;55.668;37.858;2022-12-10T12:43:40;99437.41;;;-1.95;100.00
34674;BME280;20879;55.668;37.858;2022-12-10T12:46:18;99442.63;;;-1.90;100.00
34674;BME280;20879;55.668;37.858;2022-12-10T12:54:56;99429.38;;;-2.09;100.00
34674;BME280;20879;55.668;37.858;2022-12-10T12:57:36;99426.81;;;-2.11;100.00
34674;BME280;20879;55.668;37.858;2022-12-10T13:00:12;99424.31;;;-2.09;100.00
34674;BME280;20879;55.668;37.858;2022-12-10T13:02:52;99396.06;;;-2.20;100.00
34674;BME280;20879;55.668;37.858;2022-12-10T13:05:27;99423.63;;;-2.03;100.00
34674;BME280;20879;55.668;37.858;2022-12-10T13:08:23;99427.25;;;-1.95;100.00
34674;BME280;20879;55.668;37.858;2022-12-10T13:10:58;99421.41;;;-1.92;100.00
34674;BME280;20879;55.668;37.858;2022-12-10T13:13:31;99430.72;;;-1.93;100.00
34674;BME280;20879;55.668;37.858;2022-12-10T13:19:32;99432.72;;;-1.83;100.00
34674;BME280;20879;55.668;37.858;2022-12-10T13:22:40;99418.97;;;-1.89;100.00
34674;BME280;20879;55.668;37.858;2022-12-10T13:25:14;99424.91;;;-1.89;100.00
34674;BME280;20879;55.668;37.858;2022-12-10T13:27:57;99415.72;;;-1.85;100.00